DERMI EDDH-EDDW
Flight info
| Callsign | DERMI |
|---|---|
| Flight time | 0h 37m |
| Altitude | 6000 |
| Route | WSN5G/33 WSN L23 GIBMA GIBMA2P |
| Aircraft | P28A/L-SDGRY/S |
Departure
| Time | 2026-05-04 19:06 |
|---|---|
| Airport | Hamburg Helmut Schmidt Airport (EDDH) |
Arrival
| Time | 2026-05-04 19:43 |
|---|---|
| Airport | Bremen Airport (EDDW) |
| Time | Latitude | Longitude | Altitude | Speed | Heading |
|---|---|---|---|---|---|
| 2026-05-04 18:54 | 53.62716 | 9.98791 | 33 ft | 0 kts | 79° |
| 2026-05-04 19:02 | 53.62734 | 9.98826 | 33 ft | 7 kts | 30° |
| 2026-05-04 19:02 | 53.62759 | 9.98825 | 33 ft | 0 kts | 330° |
| 2026-05-04 19:02 | 53.62772 | 9.98812 | 33 ft | 8 kts | 328° |
| 2026-05-04 19:02 | 53.62818 | 9.98807 | 33 ft | 8 kts | 48° |
| 2026-05-04 19:03 | 53.62869 | 9.98913 | 32 ft | 12 kts | 53° |
| 2026-05-04 19:03 | 53.62926 | 9.99028 | 30 ft | 11 kts | 51° |
| 2026-05-04 19:03 | 53.62956 | 9.99091 | 29 ft | 0 kts | 47° |
| 2026-05-04 19:03 | 53.62959 | 9.99097 | 29 ft | 2 kts | 48° |
| 2026-05-04 19:04 | 53.62979 | 9.99135 | 29 ft | 5 kts | 50° |
| 2026-05-04 19:04 | 53.63024 | 9.99218 | 28 ft | 13 kts | 43° |
| 2026-05-04 19:04 | 53.63106 | 9.99303 | 27 ft | 12 kts | 15° |
| 2026-05-04 19:04 | 53.63185 | 9.99333 | 26 ft | 9 kts | 7° |
| 2026-05-04 19:05 | 53.63267 | 9.99371 | 26 ft | 13 kts | 19° |
| 2026-05-04 19:05 | 53.63296 | 9.99373 | 26 ft | 0 kts | 336° |
| 2026-05-04 19:05 | 53.63414 | 9.99273 | 28 ft | 48 kts | 332° |
| 2026-05-04 19:05 | 53.63837 | 9.98921 | 154 ft | 67 kts | 329° |
| 2026-05-04 19:06 | 53.64274 | 9.98523 | 386 ft | 75 kts | 333° |
| 2026-05-04 19:06 | 53.64755 | 9.98112 | 694 ft | 80 kts | 333° |
| 2026-05-04 19:06 | 53.65287 | 9.97659 | 1013 ft | 85 kts | 334° |
| 2026-05-04 19:06 | 53.65802 | 9.97216 | 1364 ft | 84 kts | 335° |
| 2026-05-04 19:07 | 53.66335 | 9.96758 | 1701 ft | 86 kts | 335° |
| 2026-05-04 19:07 | 53.66885 | 9.96287 | 2014 ft | 90 kts | 335° |
| 2026-05-04 19:07 | 53.67459 | 9.95797 | 2326 ft | 93 kts | 334° |
| 2026-05-04 19:07 | 53.68054 | 9.95287 | 2642 ft | 96 kts | 333° |
| 2026-05-04 19:08 | 53.68649 | 9.94774 | 2977 ft | 97 kts | 332° |
| 2026-05-04 19:08 | 53.69271 | 9.94233 | 3264 ft | 101 kts | 330° |
| 2026-05-04 19:08 | 53.69893 | 9.93690 | 3605 ft | 100 kts | 330° |
| 2026-05-04 19:08 | 53.70515 | 9.93146 | 3914 ft | 102 kts | 329° |
| 2026-05-04 19:09 | 53.71140 | 9.92602 | 4241 ft | 102 kts | 328° |
| 2026-05-04 19:09 | 53.71561 | 9.91694 | 4543 ft | 99 kts | 281° |
| 2026-05-04 19:09 | 53.71425 | 9.90476 | 4856 ft | 100 kts | 247° |
| 2026-05-04 19:09 | 53.71102 | 9.89382 | 5134 ft | 101 kts | 244° |
| 2026-05-04 19:10 | 53.70751 | 9.88267 | 5406 ft | 102 kts | 245° |
| 2026-05-04 19:10 | 53.70515 | 9.87513 | 5607 ft | 101 kts | 244° |
| 2026-05-04 19:10 | 53.70040 | 9.86071 | 5960 ft | 102 kts | 242° |
| 2026-05-04 19:10 | 53.69626 | 9.84866 | 6002 ft | 119 kts | 242° |
| 2026-05-04 19:11 | 53.69148 | 9.83512 | 6010 ft | 129 kts | 241° |
| 2026-05-04 19:11 | 53.68645 | 9.82134 | 5992 ft | 134 kts | 240° |
| 2026-05-04 19:11 | 53.68096 | 9.80703 | 5982 ft | 136 kts | 239° |
| 2026-05-04 19:11 | 53.67554 | 9.79291 | 5975 ft | 137 kts | 239° |
| 2026-05-04 19:12 | 53.66997 | 9.77845 | 5971 ft | 137 kts | 238° |
| 2026-05-04 19:12 | 53.65894 | 9.74981 | 5979 ft | 137 kts | 238° |
| 2026-05-04 19:12 | 53.65334 | 9.73533 | 5994 ft | 138 kts | 238° |
| 2026-05-04 19:13 | 53.64794 | 9.72141 | 5986 ft | 138 kts | 238° |
| 2026-05-04 19:13 | 53.64257 | 9.70763 | 5996 ft | 137 kts | 238° |
| 2026-05-04 19:13 | 53.63697 | 9.69325 | 5975 ft | 139 kts | 238° |
| 2026-05-04 19:13 | 53.63159 | 9.67947 | 5976 ft | 139 kts | 238° |
| 2026-05-04 19:14 | 53.62579 | 9.66466 | 5973 ft | 139 kts | 238° |
| 2026-05-04 19:14 | 53.62030 | 9.65065 | 5977 ft | 139 kts | 238° |
| 2026-05-04 19:14 | 53.61467 | 9.63631 | 5990 ft | 139 kts | 238° |
| 2026-05-04 19:14 | 53.60897 | 9.62184 | 6021 ft | 138 kts | 238° |
| 2026-05-04 19:15 | 53.60357 | 9.60810 | 6034 ft | 138 kts | 238° |
| 2026-05-04 19:15 | 53.59777 | 9.59335 | 6041 ft | 138 kts | 238° |
| 2026-05-04 19:15 | 53.59045 | 9.57475 | 6048 ft | 138 kts | 238° |
| 2026-05-04 19:15 | 53.58661 | 9.56500 | 6035 ft | 138 kts | 238° |
| 2026-05-04 19:16 | 53.58080 | 9.55021 | 6001 ft | 140 kts | 238° |
| 2026-05-04 19:16 | 53.57530 | 9.53625 | 6011 ft | 140 kts | 237° |
| 2026-05-04 19:16 | 53.56946 | 9.52146 | 6015 ft | 139 kts | 238° |
| 2026-05-04 19:16 | 53.56398 | 9.50759 | 6003 ft | 138 kts | 238° |
| 2026-05-04 19:17 | 53.55825 | 9.49309 | 5978 ft | 139 kts | 238° |
| 2026-05-04 19:17 | 53.55250 | 9.47854 | 5964 ft | 139 kts | 238° |
| 2026-05-04 19:17 | 53.54703 | 9.46471 | 5960 ft | 139 kts | 238° |
| 2026-05-04 19:17 | 53.54112 | 9.44976 | 5965 ft | 139 kts | 237° |
| 2026-05-04 19:18 | 53.53550 | 9.43556 | 5952 ft | 141 kts | 237° |
| 2026-05-04 19:18 | 53.52977 | 9.42108 | 5988 ft | 138 kts | 237° |
| 2026-05-04 19:18 | 53.52396 | 9.40647 | 5935 ft | 142 kts | 238° |
| 2026-05-04 19:18 | 53.51840 | 9.39242 | 5989 ft | 137 kts | 238° |
| 2026-05-04 19:19 | 53.51262 | 9.37789 | 5958 ft | 140 kts | 238° |
| 2026-05-04 19:19 | 53.50704 | 9.36380 | 5955 ft | 140 kts | 238° |
| 2026-05-04 19:19 | 53.50120 | 9.34906 | 5951 ft | 141 kts | 236° |
| 2026-05-04 19:19 | 53.49535 | 9.33433 | 5928 ft | 143 kts | 236° |
| 2026-05-04 19:20 | 53.48962 | 9.31997 | 5993 ft | 140 kts | 236° |
| 2026-05-04 19:20 | 53.48375 | 9.30527 | 6007 ft | 143 kts | 236° |
| 2026-05-04 19:20 | 53.47821 | 9.29139 | 6086 ft | 140 kts | 236° |
| 2026-05-04 19:20 | 53.47237 | 9.27674 | 6121 ft | 141 kts | 237° |
| 2026-05-04 19:21 | 53.46662 | 9.26228 | 6109 ft | 141 kts | 237° |
| 2026-05-04 19:21 | 53.46090 | 9.24789 | 6010 ft | 146 kts | 237° |
| 2026-05-04 19:21 | 53.45491 | 9.23268 | 6031 ft | 142 kts | 237° |
| 2026-05-04 19:21 | 53.44936 | 9.21848 | 5969 ft | 145 kts | 237° |
| 2026-05-04 19:22 | 53.44363 | 9.20378 | 5925 ft | 145 kts | 237° |
| 2026-05-04 19:22 | 53.43781 | 9.18898 | 5915 ft | 144 kts | 237° |
| 2026-05-04 19:22 | 53.43222 | 9.17488 | 5874 ft | 145 kts | 237° |
| 2026-05-04 19:22 | 53.42664 | 9.16084 | 5843 ft | 145 kts | 237° |
| 2026-05-04 19:23 | 53.42100 | 9.14669 | 5803 ft | 146 kts | 236° |
| 2026-05-04 19:23 | 53.41533 | 9.13254 | 5905 ft | 139 kts | 236° |
| 2026-05-04 19:23 | 53.40981 | 9.11877 | 5914 ft | 140 kts | 236° |
| 2026-05-04 19:23 | 53.40442 | 9.10533 | 5986 ft | 137 kts | 236° |
| 2026-05-04 19:24 | 53.39885 | 9.09144 | 5983 ft | 140 kts | 236° |
| 2026-05-04 19:24 | 53.39331 | 9.07759 | 5994 ft | 142 kts | 236° |
| 2026-05-04 19:24 | 53.38731 | 9.06262 | 6006 ft | 142 kts | 236° |
| 2026-05-04 19:24 | 53.38178 | 9.04881 | 6030 ft | 141 kts | 236° |
| 2026-05-04 19:25 | 53.37595 | 9.03426 | 6001 ft | 144 kts | 236° |
| 2026-05-04 19:25 | 53.37018 | 9.01989 | 6044 ft | 142 kts | 236° |
| 2026-05-04 19:25 | 53.36454 | 9.00584 | 5997 ft | 146 kts | 236° |
| 2026-05-04 19:25 | 53.35858 | 8.99103 | 6007 ft | 145 kts | 236° |
| 2026-05-04 19:26 | 53.35283 | 8.97672 | 6021 ft | 143 kts | 236° |
| 2026-05-04 19:26 | 53.34710 | 8.96250 | 6033 ft | 142 kts | 236° |
| 2026-05-04 19:26 | 53.34109 | 8.94755 | 6014 ft | 143 kts | 236° |
| 2026-05-04 19:26 | 53.33553 | 8.93373 | 5990 ft | 144 kts | 236° |
| 2026-05-04 19:27 | 53.32967 | 8.91918 | 5974 ft | 144 kts | 236° |
| 2026-05-04 19:27 | 53.32396 | 8.90502 | 5958 ft | 145 kts | 236° |
| 2026-05-04 19:27 | 53.31806 | 8.89040 | 5924 ft | 146 kts | 236° |
| 2026-05-04 19:27 | 53.31211 | 8.87566 | 5929 ft | 144 kts | 236° |
| 2026-05-04 19:28 | 53.30633 | 8.86140 | 5921 ft | 145 kts | 236° |
| 2026-05-04 19:28 | 53.30025 | 8.84637 | 5938 ft | 144 kts | 236° |
| 2026-05-04 19:28 | 53.29440 | 8.83193 | 5925 ft | 145 kts | 236° |
| 2026-05-04 19:28 | 53.28849 | 8.81729 | 5936 ft | 146 kts | 236° |
| 2026-05-04 19:29 | 53.28240 | 8.80225 | 5946 ft | 146 kts | 236° |
| 2026-05-04 19:29 | 53.27661 | 8.78799 | 5969 ft | 145 kts | 236° |
| 2026-05-04 19:29 | 53.27048 | 8.77285 | 5977 ft | 146 kts | 236° |
| 2026-05-04 19:29 | 53.26463 | 8.75843 | 5977 ft | 146 kts | 236° |
| 2026-05-04 19:30 | 53.25869 | 8.74379 | 6002 ft | 146 kts | 236° |
| 2026-05-04 19:30 | 53.25254 | 8.72863 | 6020 ft | 145 kts | 236° |
| 2026-05-04 19:30 | 53.24673 | 8.71435 | 6014 ft | 146 kts | 236° |
| 2026-05-04 19:30 | 53.24098 | 8.70001 | 5914 ft | 141 kts | 237° |
| 2026-05-04 19:31 | 53.23533 | 8.68612 | 5665 ft | 144 kts | 236° |
| 2026-05-04 19:31 | 53.22952 | 8.67187 | 5435 ft | 143 kts | 236° |
| 2026-05-04 19:31 | 53.22357 | 8.65725 | 5155 ft | 145 kts | 236° |
| 2026-05-04 19:31 | 53.21781 | 8.64314 | 4931 ft | 145 kts | 236° |
| 2026-05-04 19:32 | 53.21176 | 8.62833 | 4682 ft | 145 kts | 237° |
| 2026-05-04 19:32 | 53.20594 | 8.61405 | 4439 ft | 146 kts | 237° |
| 2026-05-04 19:32 | 53.19992 | 8.59928 | 4187 ft | 147 kts | 237° |
| 2026-05-04 19:32 | 53.19309 | 8.58524 | 3921 ft | 149 kts | 230° |
| 2026-05-04 19:33 | 53.18637 | 8.57188 | 3720 ft | 148 kts | 230° |
| 2026-05-04 19:33 | 53.17927 | 8.55804 | 3486 ft | 149 kts | 230° |
| 2026-05-04 19:33 | 53.17239 | 8.54474 | 3386 ft | 145 kts | 229° |
| 2026-05-04 19:33 | 53.16559 | 8.53158 | 3224 ft | 151 kts | 230° |
| 2026-05-04 19:34 | 53.15831 | 8.51753 | 3086 ft | 155 kts | 230° |
| 2026-05-04 19:34 | 53.15120 | 8.50396 | 2999 ft | 153 kts | 230° |
| 2026-05-04 19:34 | 53.14391 | 8.49027 | 2966 ft | 153 kts | 229° |
| 2026-05-04 19:34 | 53.13695 | 8.47701 | 2959 ft | 152 kts | 229° |
| 2026-05-04 19:35 | 53.12946 | 8.46257 | 2938 ft | 153 kts | 229° |
| 2026-05-04 19:35 | 53.12211 | 8.44854 | 2991 ft | 149 kts | 229° |
| 2026-05-04 19:35 | 53.11406 | 8.43706 | 2959 ft | 151 kts | 201° |
| 2026-05-04 19:35 | 53.10310 | 8.43266 | 2973 ft | 148 kts | 193° |
| 2026-05-04 19:36 | 53.09264 | 8.42901 | 2932 ft | 151 kts | 191° |
| 2026-05-04 19:36 | 53.08176 | 8.42533 | 2955 ft | 149 kts | 191° |
| 2026-05-04 19:36 | 53.07074 | 8.42311 | 2914 ft | 149 kts | 169° |
| 2026-05-04 19:36 | 53.06202 | 8.43242 | 2945 ft | 143 kts | 134° |
| 2026-05-04 19:37 | 53.05408 | 8.44429 | 2978 ft | 142 kts | 134° |
| 2026-05-04 19:37 | 53.04660 | 8.45586 | 2918 ft | 146 kts | 135° |
| 2026-05-04 19:37 | 53.04044 | 8.47059 | 2879 ft | 143 kts | 99° |
| 2026-05-04 19:37 | 53.03994 | 8.48733 | 3044 ft | 132 kts | 89° |
| 2026-05-04 19:38 | 53.04015 | 8.50372 | 3040 ft | 135 kts | 87° |
| 2026-05-04 19:38 | 53.04051 | 8.52067 | 2979 ft | 138 kts | 87° |
| 2026-05-04 19:38 | 53.04086 | 8.53747 | 2806 ft | 140 kts | 86° |
| 2026-05-04 19:38 | 53.04129 | 8.55482 | 2617 ft | 142 kts | 86° |
| 2026-05-04 19:39 | 53.04168 | 8.57196 | 2428 ft | 142 kts | 86° |
| 2026-05-04 19:39 | 53.04210 | 8.58921 | 2222 ft | 143 kts | 86° |
| 2026-05-04 19:39 | 53.04250 | 8.60651 | 2024 ft | 138 kts | 85° |
| 2026-05-04 19:39 | 53.04293 | 8.62295 | 1835 ft | 134 kts | 85° |
| 2026-05-04 19:40 | 53.04332 | 8.63863 | 1647 ft | 125 kts | 85° |
| 2026-05-04 19:40 | 53.04371 | 8.65382 | 1464 ft | 118 kts | 86° |
| 2026-05-04 19:40 | 53.04399 | 8.66533 | 1324 ft | 103 kts | 83° |
| 2026-05-04 19:40 | 53.04421 | 8.67231 | 1241 ft | 97 kts | 83° |
| 2026-05-04 19:41 | 53.04449 | 8.68334 | 1111 ft | 90 kts | 84° |
| 2026-05-04 19:41 | 53.04474 | 8.69248 | 1008 ft | 92 kts | 84° |
| 2026-05-04 19:41 | 53.04499 | 8.70324 | 881 ft | 83 kts | 83° |
| 2026-05-04 19:41 | 53.04528 | 8.71339 | 764 ft | 83 kts | 82° |
| 2026-05-04 19:42 | 53.04553 | 8.72370 | 644 ft | 85 kts | 83° |
| 2026-05-04 19:42 | 53.04571 | 8.73414 | 524 ft | 86 kts | 82° |
| 2026-05-04 19:42 | 53.04592 | 8.74481 | 401 ft | 86 kts | 84° |
| 2026-05-04 19:42 | 53.04615 | 8.75519 | 280 ft | 86 kts | 83° |
| 2026-05-04 19:43 | 53.04641 | 8.76527 | 165 ft | 80 kts | 83° |
| 2026-05-04 19:43 | 53.04661 | 8.77496 | 40 ft | 78 kts | 83° |
| 2026-05-04 19:43 | 53.04679 | 8.78265 | 3 ft | 47 kts | 87° |
| 2026-05-04 19:43 | 53.04688 | 8.78584 | 3 ft | 13 kts | 78° |
| 2026-05-04 19:44 | 53.04744 | 8.78665 | 3 ft | 8 kts | 1° |
| 2026-05-04 19:44 | 53.04789 | 8.78662 | 3 ft | 5 kts | 359° |
| 2026-05-04 19:44 | 53.04841 | 8.78631 | 3 ft | 8 kts | 306° |
| 2026-05-04 19:44 | 53.04845 | 8.78510 | 4 ft | 10 kts | 268° |
| 2026-05-04 19:45 | 53.04846 | 8.78390 | 4 ft | 10 kts | 292° |
| 2026-05-04 19:45 | 53.04885 | 8.78326 | 4 ft | 5 kts | 319° |
| 2026-05-04 19:45 | 53.04925 | 8.78269 | 5 ft | 7 kts | 318° |
| 2026-05-04 19:45 | 53.04961 | 8.78213 | 6 ft | 6 kts | 314° |
| 2026-05-04 19:46 | 53.05001 | 8.78153 | 7 ft | 6 kts | 321° |
| 2026-05-04 19:46 | 53.05030 | 8.78118 | 7 ft | 4 kts | 333° |
| 2026-05-04 19:46 | 53.05043 | 8.78121 | 7 ft | 0 kts | 52° |